sensor_id;sensor_type;location;lat;lon;timestamp;temperature;humidity
14359;DHT22;7263;49.418;11.064;2022-08-19T00:01:19;20.20;99.90
14359;DHT22;7263;49.418;11.064;2022-08-19T00:03:46;20.20;99.90
14359;DHT22;7263;49.418;11.064;2022-08-19T00:06:14;20.20;99.90
14359;DHT22;7263;49.418;11.064;2022-08-19T00:08:41;20.30;99.90
14359;DHT22;7263;49.418;11.064;2022-08-19T00:11:09;20.20;99.90
14359;DHT22;7263;49.418;11.064;2022-08-19T00:13:38;20.20;99.90
14359;DHT22;7263;49.418;11.064;2022-08-19T00:16:05;20.20;99.90
14359;DHT22;7263;49.418;11.064;2022-08-19T00:18:33;20.20;99.90
14359;DHT22;7263;49.418;11.064;2022-08-19T00:21:00;20.10;99.90
14359;DHT22;7263;49.418;11.064;2022-08-19T00:23:27;20.10;99.90
14359;DHT22;7263;49.418;11.064;2022-08-19T00:25:54;20.10;99.90
14359;DHT22;7263;49.418;11.064;2022-08-19T00:28:20;20.10;99.90
14359;DHT22;7263;49.418;11.064;2022-08-19T00:30:49;20.10;99.90
14359;DHT22;7263;49.418;11.064;2022-08-19T00:33:17;20.00;99.90
14359;DHT22;7263;49.418;11.064;2022-08-19T00:35:44;20.10;99.90
14359;DHT22;7263;49.418;11.064;2022-08-19T00:38:11;20.10;99.90
14359;DHT22;7263;49.418;11.064;2022-08-19T00:40:38;20.00;99.90
14359;DHT22;7263;49.418;11.064;2022-08-19T00:43:09;20.10;99.90
14359;DHT22;7263;49.418;11.064;2022-08-19T00:45:36;20.10;99.90
14359;DHT22;7263;49.418;11.064;2022-08-19T00:48:04;20.10;99.90
14359;DHT22;7263;49.418;11.064;2022-08-19T00:50:32;20.10;99.90
14359;DHT22;7263;49.418;11.064;2022-08-19T00:53:00;20.20;99.90
14359;DHT22;7263;49.418;11.064;2022-08-19T00:55:30;20.20;99.90
14359;DHT22;7263;49.418;11.064;2022-08-19T00:58:00;20.20;99.90
14359;DHT22;7263;49.418;11.064;2022-08-19T01:00:29;20.30;99.90
14359;DHT22;7263;49.418;11.064;2022-08-19T01:02:58;20.30;99.90
14359;DHT22;7263;49.418;11.064;2022-08-19T01:05:27;20.20;99.90
14359;DHT22;7263;49.418;11.064;2022-08-19T01:07:56;20.30;99.90
14359;DHT22;7263;49.418;11.064;2022-08-19T01:10:28;20.30;99.90
14359;DHT22;7263;49.418;11.064;2022-08-19T01:12:57;20.30;99.90
14359;DHT22;7263;49.418;11.064;2022-08-19T01:15:27;20.30;99.90
14359;DHT22;7263;49.418;11.064;2022-08-19T01:17:57;20.30;99.90
14359;DHT22;7263;49.418;11.064;2022-08-19T01:20:27;20.30;99.90
14359;DHT22;7263;49.418;11.064;2022-08-19T01:22:57;20.30;99.90
14359;DHT22;7263;49.418;11.064;2022-08-19T01:25:29;20.30;99.90
14359;DHT22;7263;49.418;11.064;2022-08-19T01:27:57;20.30;99.90
14359;DHT22;7263;49.418;11.064;2022-08-19T01:30:26;20.30;99.90
14359;DHT22;7263;49.418;11.064;2022-08-19T01:32:53;20.20;99.90
14359;DHT22;7263;49.418;11.064;2022-08-19T01:35:22;20.20;99.90
14359;DHT22;7263;49.418;11.064;2022-08-19T01:37:52;20.20;99.90
14359;DHT22;7263;49.418;11.064;2022-08-19T01:40:23;20.20;99.90
14359;DHT22;7263;49.418;11.064;2022-08-19T01:42:52;20.20;99.90
14359;DHT22;7263;49.418;11.064;2022-08-19T01:45:20;20.20;99.90
14359;DHT22;7263;49.418;11.064;2022-08-19T01:47:48;20.20;99.90
14359;DHT22;7263;49.418;11.064;2022-08-19T01:50:15;20.20;99.90
14359;DHT22;7263;49.418;11.064;2022-08-19T01:52:43;20.20;99.90
14359;DHT22;7263;49.418;11.064;2022-08-19T01:55:18;20.10;99.90
14359;DHT22;7263;49.418;11.064;2022-08-19T01:57:50;20.10;99.90
14359;DHT22;7263;49.418;11.064;2022-08-19T02:00:19;20.10;99.90
14359;DHT22;7263;49.418;11.064;2022-08-19T02:02:47;20.10;99.90
14359;DHT22;7263;49.418;11.064;2022-08-19T02:05:14;20.10;99.90
14359;DHT22;7263;49.418;11.064;2022-08-19T02:07:46;20.10;99.90
14359;DHT22;7263;49.418;11.064;2022-08-19T02:10:18;20.10;99.90
14359;DHT22;7263;49.418;11.064;2022-08-19T02:12:48;20.10;99.90
14359;DHT22;7263;49.418;11.064;2022-08-19T02:15:16;20.10;99.90
14359;DHT22;7263;49.418;11.064;2022-08-19T02:17:44;20.10;99.90
14359;DHT22;7263;49.418;11.064;2022-08-19T02:20:12;20.10;99.90
14359;DHT22;7263;49.418;11.064;2022-08-19T02:22:39;20.10;99.90
14359;DHT22;7263;49.418;11.064;2022-08-19T02:25:09;20.10;99.90
14359;DHT22;7263;49.418;11.064;2022-08-19T02:27:36;20.10;99.90
14359;DHT22;7263;49.418;11.064;2022-08-19T02:30:06;20.10;99.90
14359;DHT22;7263;49.418;11.064;2022-08-19T02:32:34;20.00;99.90
14359;DHT22;7263;49.418;11.064;2022-08-19T02:35:01;20.00;99.90
14359;DHT22;7263;49.418;11.064;2022-08-19T02:37:28;20.00;99.90
14359;DHT22;7263;49.418;11.064;2022-08-19T02:40:12;20.00;99.90
14359;DHT22;7263;49.418;11.064;2022-08-19T02:42:39;20.00;99.90
14359;DHT22;7263;49.418;11.064;2022-08-19T02:45:10;20.00;99.90
14359;DHT22;7263;49.418;11.064;2022-08-19T02:47:37;20.00;99.90
14359;DHT22;7263;49.418;11.064;2022-08-19T02:50:04;20.00;99.90
14359;DHT22;7263;49.418;11.064;2022-08-19T02:52:32;20.00;99.90
14359;DHT22;7263;49.418;11.064;2022-08-19T02:54:59;20.10;99.90
14359;DHT22;7263;49.418;11.064;2022-08-19T02:57:26;20.10;99.90
14359;DHT22;7263;49.418;11.064;2022-08-19T02:59:53;20.10;99.90
14359;DHT22;7263;49.418;11.064;2022-08-19T03:02:22;20.10;99.90
14359;DHT22;7263;49.418;11.064;2022-08-19T03:04:49;20.10;99.90
14359;DHT22;7263;49.418;11.064;2022-08-19T03:07:16;20.10;99.90
14359;DHT22;7263;49.418;11.064;2022-08-19T03:09:44;20.10;99.90
14359;DHT22;7263;49.418;11.064;2022-08-19T03:12:11;20.10;99.90
14359;DHT22;7263;49.418;11.064;2022-08-19T03:14:38;20.10;99.90
14359;DHT22;7263;49.418;11.064;2022-08-19T03:17:05;20.10;99.90
14359;DHT22;7263;49.418;11.064;2022-08-19T03:19:33;20.10;99.90
14359;DHT22;7263;49.418;11.064;2022-08-19T03:22:00;20.10;99.90
14359;DHT22;7263;49.418;11.064;2022-08-19T03:24:28;20.10;99.90
14359;DHT22;7263;49.418;11.064;2022-08-19T03:26:56;20.10;99.90
14359;DHT22;7263;49.418;11.064;2022-08-19T03:29:25;20.00;99.90
14359;DHT22;7263;49.418;11.064;2022-08-19T03:31:53;20.00;99.90
14359;DHT22;7263;49.418;11.064;2022-08-19T03:34:23;20.00;99.90
14359;DHT22;7263;49.418;11.064;2022-08-19T03:36:53;20.00;99.90
14359;DHT22;7263;49.418;11.064;2022-08-19T03:39:21;19.90;99.90
14359;DHT22;7263;49.418;11.064;2022-08-19T03:41:49;24.60;99.90
14359;DHT22;7263;49.418;11.064;2022-08-19T03:44:18;20.00;99.90
14359;DHT22;7263;49.418;11.064;2022-08-19T03:46:47;19.90;99.90
14359;DHT22;7263;49.418;11.064;2022-08-19T03:49:15;19.90;99.90
14359;DHT22;7263;49.418;11.064;2022-08-19T03:51:42;19.90;99.90
14359;DHT22;7263;49.418;11.064;2022-08-19T03:54:14;19.90;99.90
14359;DHT22;7263;49.418;11.064;2022-08-19T03:56:42;19.90;99.90
14359;DHT22;7263;49.418;11.064;2022-08-19T03:59:12;19.90;99.90
14359;DHT22;7263;49.418;11.064;2022-08-19T04:01:40;19.90;99.90
14359;DHT22;7263;49.418;11.064;2022-08-19T04:04:06;19.90;99.90
14359;DHT22;7263;49.418;11.064;2022-08-19T04:06:35;19.80;99.90
14359;DHT22;7263;49.418;11.064;2022-08-19T04:09:06;19.80;99.90
14359;DHT22;7263;49.418;11.064;2022-08-19T04:11:37;19.80;99.90
14359;DHT22;7263;49.418;11.064;2022-08-19T04:14:08;19.80;99.90
14359;DHT22;7263;49.418;11.064;2022-08-19T04:16:35;19.80;99.90
14359;DHT22;7263;49.418;11.064;2022-08-19T04:19:04;19.80;99.90
14359;DHT22;7263;49.418;11.064;2022-08-19T04:21:31;19.80;99.90
14359;DHT22;7263;49.418;11.064;2022-08-19T04:23:58;19.80;99.90
14359;DHT22;7263;49.418;11.064;2022-08-19T04:26:27;19.80;99.90
14359;DHT22;7263;49.418;11.064;2022-08-19T04:28:55;19.80;99.90
14359;DHT22;7263;49.418;11.064;2022-08-19T04:31:24;19.80;99.90
14359;DHT22;7263;49.418;11.064;2022-08-19T04:33:51;19.80;99.90
14359;DHT22;7263;49.418;11.064;2022-08-19T04:36:20;19.80;99.90
14359;DHT22;7263;49.418;11.064;2022-08-19T04:38:48;19.80;99.90
14359;DHT22;7263;49.418;11.064;2022-08-19T04:41:16;19.80;99.90
14359;DHT22;7263;49.418;11.064;2022-08-19T04:44:02;19.80;99.90
14359;DHT22;7263;49.418;11.064;2022-08-19T04:46:30;19.80;99.90
14359;DHT22;7263;49.418;11.064;2022-08-19T04:48:57;19.80;99.90
14359;DHT22;7263;49.418;11.064;2022-08-19T04:51:24;19.80;99.90
14359;DHT22;7263;49.418;11.064;2022-08-19T04:53:52;19.90;99.90
14359;DHT22;7263;49.418;11.064;2022-08-19T04:56:20;19.90;99.90
14359;DHT22;7263;49.418;11.064;2022-08-19T04:58:49;19.90;99.90
14359;DHT22;7263;49.418;11.064;2022-08-19T05:01:21;20.00;99.90
14359;DHT22;7263;49.418;11.064;2022-08-19T05:03:49;20.00;99.90
14359;DHT22;7263;49.418;11.064;2022-08-19T05:06:17;20.00;99.90
14359;DHT22;7263;49.418;11.064;2022-08-19T05:08:45;20.00;99.90
14359;DHT22;7263;49.418;11.064;2022-08-19T05:11:16;20.00;99.90
14359;DHT22;7263;49.418;11.064;2022-08-19T05:13:44;20.10;99.90
14359;DHT22;7263;49.418;11.064;2022-08-19T05:16:12;20.10;99.90
14359;DHT22;7263;49.418;11.064;2022-08-19T05:18:40;20.10;99.90
14359;DHT22;7263;49.418;11.064;2022-08-19T05:21:25;20.10;99.90
14359;DHT22;7263;49.418;11.064;2022-08-19T05:24:10;20.10;99.90
14359;DHT22;7263;49.418;11.064;2022-08-19T05:26:39;20.10;99.90
14359;DHT22;7263;49.418;11.064;2022-08-19T05:29:08;20.10;99.90
14359;DHT22;7263;49.418;11.064;2022-08-19T05:31:36;20.10;99.90
14359;DHT22;7263;49.418;11.064;2022-08-19T05:34:05;20.10;99.90
14359;DHT22;7263;49.418;11.064;2022-08-19T05:36:35;20.20;99.90
14359;DHT22;7263;49.418;11.064;2022-08-19T05:39:04;20.20;99.90
14359;DHT22;7263;49.418;11.064;2022-08-19T05:41:31;20.20;99.90
14359;DHT22;7263;49.418;11.064;2022-08-19T05:44:03;20.30;99.90
14359;DHT22;7263;49.418;11.064;2022-08-19T05:46:31;20.40;99.90
14359;DHT22;7263;49.418;11.064;2022-08-19T05:48:58;20.40;99.90
14359;DHT22;7263;49.418;11.064;2022-08-19T05:51:26;20.40;99.90
14359;DHT22;7263;49.418;11.064;2022-08-19T05:53:53;20.50;99.90
14359;DHT22;7263;49.418;11.064;2022-08-19T05:56:20;20.50;99.90
14359;DHT22;7263;49.418;11.064;2022-08-19T05:58:47;20.60;99.90
14359;DHT22;7263;49.418;11.064;2022-08-19T06:01:16;20.70;99.90
14359;DHT22;7263;49.418;11.064;2022-08-19T06:03:44;21.00;99.90
14359;DHT22;7263;49.418;11.064;2022-08-19T06:06:13;21.00;99.90
14359;DHT22;7263;49.418;11.064;2022-08-19T06:08:42;21.10;99.90
14359;DHT22;7263;49.418;11.064;2022-08-19T06:11:20;21.20;99.90
14359;DHT22;7263;49.418;11.064;2022-08-19T06:13:49;21.30;99.90
14359;DHT22;7263;49.418;11.064;2022-08-19T06:16:18;21.40;99.90
14359;DHT22;7263;49.418;11.064;2022-08-19T06:18:49;21.50;99.90
14359;DHT22;7263;49.418;11.064;2022-08-19T06:21:19;21.70;99.90
14359;DHT22;7263;49.418;11.064;2022-08-19T06:23:47;21.80;99.90
14359;DHT22;7263;49.418;11.064;2022-08-19T06:26:16;21.90;99.90
14359;DHT22;7263;49.418;11.064;2022-08-19T06:28:44;21.80;99.90
14359;DHT22;7263;49.418;11.064;2022-08-19T06:31:12;21.90;99.90
14359;DHT22;7263;49.418;11.064;2022-08-19T06:33:40;21.90;99.90
14359;DHT22;7263;49.418;11.064;2022-08-19T06:36:08;21.90;99.90
14359;DHT22;7263;49.418;11.064;2022-08-19T06:38:42;22.00;99.90
14359;DHT22;7263;49.418;11.064;2022-08-19T06:41:10;22.00;99.90
14359;DHT22;7263;49.418;11.064;2022-08-19T06:43:37;22.10;99.90
14359;DHT22;7263;49.418;11.064;2022-08-19T06:46:04;22.10;99.90
14359;DHT22;7263;49.418;11.064;2022-08-19T06:48:36;22.00;99.90
14359;DHT22;7263;49.418;11.064;2022-08-19T06:51:03;22.10;99.90
14359;DHT22;7263;49.418;11.064;2022-08-19T06:53:31;22.10;99.90
14359;DHT22;7263;49.418;11.064;2022-08-19T06:55:58;22.10;99.90
14359;DHT22;7263;49.418;11.064;2022-08-19T06:58:29;22.00;99.90
14359;DHT22;7263;49.418;11.064;2022-08-19T07:00:59;22.00;99.90
14359;DHT22;7263;49.418;11.064;2022-08-19T07:03:29;21.90;99.90
14359;DHT22;7263;49.418;11.064;2022-08-19T07:05:57;21.90;99.90
14359;DHT22;7263;49.418;11.064;2022-08-19T07:08:24;21.80;99.90
14359;DHT22;7263;49.418;11.064;2022-08-19T07:10:52;21.80;99.90
14359;DHT22;7263;49.418;11.064;2022-08-19T07:13:20;21.70;99.90
14359;DHT22;7263;49.418;11.064;2022-08-19T07:15:49;21.50;99.90
14359;DHT22;7263;49.418;11.064;2022-08-19T07:18:17;21.50;99.90
14359;DHT22;7263;49.418;11.064;2022-08-19T07:20:44;21.50;99.90
14359;DHT22;7263;49.418;11.064;2022-08-19T07:23:11;21.50;99.90
14359;DHT22;7263;49.418;11.064;2022-08-19T07:25:39;21.50;99.90
14359;DHT22;7263;49.418;11.064;2022-08-19T07:28:06;21.40;99.90
14359;DHT22;7263;49.418;11.064;2022-08-19T07:30:37;21.40;99.90
14359;DHT22;7263;49.418;11.064;2022-08-19T07:33:07;21.30;99.90
14359;DHT22;7263;49.418;11.064;2022-08-19T07:35:34;21.30;99.90
14359;DHT22;7263;49.418;11.064;2022-08-19T07:38:01;21.20;99.90
14359;DHT22;7263;49.418;11.064;2022-08-19T07:40:29;21.10;99.90
14359;DHT22;7263;49.418;11.064;2022-08-19T07:42:56;21.10;99.90
14359;DHT22;7263;49.418;11.064;2022-08-19T07:45:23;21.10;99.90
14359;DHT22;7263;49.418;11.064;2022-08-19T07:47:50;21.10;99.90
14359;DHT22;7263;49.418;11.064;2022-08-19T07:50:20;21.10;99.90
14359;DHT22;7263;49.418;11.064;2022-08-19T07:52:47;21.10;99.90
14359;DHT22;7263;49.418;11.064;2022-08-19T07:55:17;21.00;99.90
14359;DHT22;7263;49.418;11.064;2022-08-19T07:57:44;21.00;99.90
14359;DHT22;7263;49.418;11.064;2022-08-19T08:00:11;21.00;99.90
14359;DHT22;7263;49.418;11.064;2022-08-19T08:02:38;20.90;99.90
14359;DHT22;7263;49.418;11.064;2022-08-19T08:05:08;20.90;99.90
14359;DHT22;7263;49.418;11.064;2022-08-19T08:10:39;20.90;99.90
14359;DHT22;7263;49.418;11.064;2022-08-19T08:13:06;21.00;99.90
14359;DHT22;7263;49.418;11.064;2022-08-19T08:15:33;21.00;99.90
14359;DHT22;7263;49.418;11.064;2022-08-19T08:18:00;21.00;99.90
14359;DHT22;7263;49.418;11.064;2022-08-19T08:20:27;21.00;99.90
14359;DHT22;7263;49.418;11.064;2022-08-19T08:22:56;21.10;99.90
14359;DHT22;7263;49.418;11.064;2022-08-19T08:25:40;21.10;99.90
14359;DHT22;7263;49.418;11.064;2022-08-19T08:28:07;21.20;99.90
14359;DHT22;7263;49.418;11.064;2022-08-19T08:30:34;21.30;99.90
14359;DHT22;7263;49.418;11.064;2022-08-19T08:33:05;21.50;99.90
14359;DHT22;7263;49.418;11.064;2022-08-19T08:35:32;21.50;99.90
14359;DHT22;7263;49.418;11.064;2022-08-19T08:38:01;21.70;99.90
14359;DHT22;7263;49.418;11.064;2022-08-19T08:40:32;21.90;99.90
14359;DHT22;7263;49.418;11.064;2022-08-19T08:43:07;21.80;99.90
14359;DHT22;7263;49.418;11.064;2022-08-19T08:45:41;21.80;99.90
14359;DHT22;7263;49.418;11.064;2022-08-19T08:48:18;21.80;99.90
14359;DHT22;7263;49.418;11.064;2022-08-19T08:50:48;21.80;99.90
14359;DHT22;7263;49.418;11.064;2022-08-19T08:53:20;21.80;99.90
14359;DHT22;7263;49.418;11.064;2022-08-19T08:55:48;21.70;99.90
14359;DHT22;7263;49.418;11.064;2022-08-19T08:58:19;21.80;99.90
14359;DHT22;7263;49.418;11.064;2022-08-19T09:00:49;21.80;99.90
14359;DHT22;7263;49.418;11.064;2022-08-19T09:03:18;21.70;99.90
14359;DHT22;7263;49.418;11.064;2022-08-19T09:05:56;21.70;99.90
14359;DHT22;7263;49.418;11.064;2022-08-19T09:08:34;21.60;99.90
14359;DHT22;7263;49.418;11.064;2022-08-19T09:11:08;21.60;99.90
14359;DHT22;7263;49.418;11.064;2022-08-19T09:13:42;21.50;99.90
14359;DHT22;7263;49.418;11.064;2022-08-19T09:16:16;21.40;99.90
14359;DHT22;7263;49.418;11.064;2022-08-19T09:18:45;21.40;99.90
14359;DHT22;7263;49.418;11.064;2022-08-19T09:21:14;21.40;99.90
14359;DHT22;7263;49.418;11.064;2022-08-19T09:23:43;21.30;99.90
14359;DHT22;7263;49.418;11.064;2022-08-19T09:26:11;21.20;99.90
14359;DHT22;7263;49.418;11.064;2022-08-19T09:28:39;21.10;99.90
14359;DHT22;7263;49.418;11.064;2022-08-19T09:31:07;21.10;99.90
14359;DHT22;7263;49.418;11.064;2022-08-19T09:33:34;21.10;99.90
14359;DHT22;7263;49.418;11.064;2022-08-19T09:36:03;21.10;99.90
14359;DHT22;7263;49.418;11.064;2022-08-19T09:38:30;21.20;99.90
14359;DHT22;7263;49.418;11.064;2022-08-19T09:41:03;21.20;99.90
14359;DHT22;7263;49.418;11.064;2022-08-19T09:43:31;21.30;99.90
14359;DHT22;7263;49.418;11.064;2022-08-19T09:45:59;21.30;99.90
14359;DHT22;7263;49.418;11.064;2022-08-19T09:48:26;21.40;99.90
14359;DHT22;7263;49.418;11.064;2022-08-19T09:50:53;21.40;99.90
14359;DHT22;7263;49.418;11.064;2022-08-19T09:53:20;21.40;99.90
14359;DHT22;7263;49.418;11.064;2022-08-19T09:55:48;21.40;99.90
14359;DHT22;7263;49.418;11.064;2022-08-19T09:58:16;21.50;99.90
14359;DHT22;7263;49.418;11.064;2022-08-19T10:00:43;21.50;99.90
14359;DHT22;7263;49.418;11.064;2022-08-19T10:05:38;21.60;99.90
14359;DHT22;7263;49.418;11.064;2022-08-19T10:08:19;21.60;99.90
14359;DHT22;7263;49.418;11.064;2022-08-19T10:10:46;21.60;99.90
14359;DHT22;7263;49.418;11.064;2022-08-19T10:13:17;21.50;99.90
14359;DHT22;7263;49.418;11.064;2022-08-19T10:15:45;21.50;99.90
14359;DHT22;7263;49.418;11.064;2022-08-19T10:18:15;21.50;99.90
14359;DHT22;7263;49.418;11.064;2022-08-19T10:20:43;21.50;99.90
14359;DHT22;7263;49.418;11.064;2022-08-19T10:23:11;21.50;99.90
14359;DHT22;7263;49.418;11.064;2022-08-19T10:25:37;21.50;99.90
14359;DHT22;7263;49.418;11.064;2022-08-19T10:28:05;21.60;99.90
14359;DHT22;7263;49.418;11.064;2022-08-19T10:30:35;21.60;99.90
14359;DHT22;7263;49.418;11.064;2022-08-19T10:33:02;21.50;99.90
14359;DHT22;7263;49.418;11.064;2022-08-19T10:35:29;21.50;99.90
14359;DHT22;7263;49.418;11.064;2022-08-19T10:37:56;21.50;99.90
14359;DHT22;7263;49.418;11.064;2022-08-19T10:40:26;21.50;99.90
14359;DHT22;7263;49.418;11.064;2022-08-19T10:42:53;21.50;99.90
14359;DHT22;7263;49.418;11.064;2022-08-19T10:45:20;21.40;99.90
14359;DHT22;7263;49.418;11.064;2022-08-19T10:47:53;21.40;99.90
14359;DHT22;7263;49.418;11.064;2022-08-19T10:50:19;21.40;99.90
14359;DHT22;7263;49.418;11.064;2022-08-19T10:53:05;21.30;99.90
14359;DHT22;7263;49.418;11.064;2022-08-19T10:55:34;21.30;99.90
14359;DHT22;7263;49.418;11.064;2022-08-19T10:58:21;21.40;99.90
14359;DHT22;7263;49.418;11.064;2022-08-19T11:00:54;21.40;99.90
14359;DHT22;7263;49.418;11.064;2022-08-19T11:03:24;21.40;99.90
14359;DHT22;7263;49.418;11.064;2022-08-19T11:05:58;21.40;99.90
14359;DHT22;7263;49.418;11.064;2022-08-19T11:08:24;21.30;99.90
14359;DHT22;7263;49.418;11.064;2022-08-19T11:10:53;21.30;99.90
14359;DHT22;7263;49.418;11.064;2022-08-19T11:13:22;21.30;99.90
14359;DHT22;7263;49.418;11.064;2022-08-19T11:15:57;21.30;99.90
14359;DHT22;7263;49.418;11.064;2022-08-19T11:18:25;21.30;99.90
14359;DHT22;7263;49.418;11.064;2022-08-19T11:20:52;21.30;99.90
14359;DHT22;7263;49.418;11.064;2022-08-19T11:23:19;21.30;99.90
14359;DHT22;7263;49.418;11.064;2022-08-19T11:25:46;21.30;99.90
14359;DHT22;7263;49.418;11.064;2022-08-19T11:28:13;21.40;99.90
14359;DHT22;7263;49.418;11.064;2022-08-19T11:30:40;21.30;99.90
14359;DHT22;7263;49.418;11.064;2022-08-19T11:33:07;21.40;99.90
14359;DHT22;7263;49.418;11.064;2022-08-19T11:35:40;21.40;99.90
14359;DHT22;7263;49.418;11.064;2022-08-19T11:38:07;21.40;99.90
14359;DHT22;7263;49.418;11.064;2022-08-19T11:40:34;21.20;99.90
14359;DHT22;7263;49.418;11.064;2022-08-19T11:45:28;20.60;99.90
14359;DHT22;7263;49.418;11.064;2022-08-19T11:47:55;20.40;99.90
14359;DHT22;7263;49.418;11.064;2022-08-19T11:50:22;20.20;99.90
14359;DHT22;7263;49.418;11.064;2022-08-19T11:52:53;20.10;99.90
14359;DHT22;7263;49.418;11.064;2022-08-19T11:55:20;19.90;99.90
14359;DHT22;7263;49.418;11.064;2022-08-19T11:57:47;19.90;99.90
14359;DHT22;7263;49.418;11.064;2022-08-19T12:00:15;19.80;99.90
14359;DHT22;7263;49.418;11.064;2022-08-19T12:02:42;19.70;99.90
14359;DHT22;7263;49.418;11.064;2022-08-19T12:05:09;19.60;99.90
14359;DHT22;7263;49.418;11.064;2022-08-19T12:07:36;19.50;99.90
14359;DHT22;7263;49.418;11.064;2022-08-19T12:10:05;19.50;99.90
14359;DHT22;7263;49.418;11.064;2022-08-19T12:12:32;19.40;99.90
14359;DHT22;7263;49.418;11.064;2022-08-19T12:14:59;19.40;99.90
14359;DHT22;7263;49.418;11.064;2022-08-19T12:17:26;19.40;99.90
14359;DHT22;7263;49.418;11.064;2022-08-19T12:19:54;19.30;99.90
14359;DHT22;7263;49.418;11.064;2022-08-19T12:22:21;19.30;99.90
14359;DHT22;7263;49.418;11.064;2022-08-19T12:24:48;19.30;99.90
14359;DHT22;7263;49.418;11.064;2022-08-19T12:27:19;19.30;99.90
14359;DHT22;7263;49.418;11.064;2022-08-19T12:29:46;19.30;99.90
14359;DHT22;7263;49.418;11.064;2022-08-19T12:32:13;19.30;99.90
14359;DHT22;7263;49.418;11.064;2022-08-19T12:34:39;19.40;99.90
14359;DHT22;7263;49.418;11.064;2022-08-19T12:37:07;19.30;99.90
14359;DHT22;7263;49.418;11.064;2022-08-19T12:39:36;19.30;99.90
14359;DHT22;7263;49.418;11.064;2022-08-19T12:42:03;19.30;99.90
14359;DHT22;7263;49.418;11.064;2022-08-19T12:44:31;19.20;99.90
14359;DHT22;7263;49.418;11.064;2022-08-19T12:46:58;19.10;99.90
14359;DHT22;7263;49.418;11.064;2022-08-19T12:49:27;19.10;99.90
14359;DHT22;7263;49.418;11.064;2022-08-19T12:51:54;19.10;99.90
14359;DHT22;7263;49.418;11.064;2022-08-19T12:54:22;19.10;99.90
14359;DHT22;7263;49.418;11.064;2022-08-19T12:56:49;19.20;99.90
14359;DHT22;7263;49.418;11.064;2022-08-19T12:59:16;19.20;99.90
14359;DHT22;7263;49.418;11.064;2022-08-19T13:01:45;19.30;99.90
14359;DHT22;7263;49.418;11.064;2022-08-19T13:04:12;19.40;99.90
14359;DHT22;7263;49.418;11.064;2022-08-19T13:06:39;19.40;99.90
14359;DHT22;7263;49.418;11.064;2022-08-19T13:09:07;19.40;99.90
14359;DHT22;7263;49.418;11.064;2022-08-19T13:11:34;19.30;99.90
14359;DHT22;7263;49.418;11.064;2022-08-19T13:14:02;19.40;99.90
14359;DHT22;7263;49.418;11.064;2022-08-19T13:16:29;19.50;99.90
14359;DHT22;7263;49.418;11.064;2022-08-19T13:18:58;19.60;99.90
14359;DHT22;7263;49.418;11.064;2022-08-19T13:21:26;19.60;99.90
14359;DHT22;7263;49.418;11.064;2022-08-19T13:23:55;19.60;99.90
14359;DHT22;7263;49.418;11.064;2022-08-19T13:26:23;19.70;99.90
14359;DHT22;7263;49.418;11.064;2022-08-19T13:28:51;19.70;99.90
14359;DHT22;7263;49.418;11.064;2022-08-19T13:31:38;19.70;99.90
14359;DHT22;7263;49.418;11.064;2022-08-19T13:34:29;19.80;99.90
14359;DHT22;7263;49.418;11.064;2022-08-19T13:36:57;19.80;99.90
14359;DHT22;7263;49.418;11.064;2022-08-19T13:39:24;19.80;99.90
14359;DHT22;7263;49.418;11.064;2022-08-19T13:41:51;19.80;99.90
14359;DHT22;7263;49.418;11.064;2022-08-19T13:44:20;19.70;99.90
14359;DHT22;7263;49.418;11.064;2022-08-19T13:46:47;19.70;99.90
14359;DHT22;7263;49.418;11.064;2022-08-19T13:49:17;19.70;99.90
14359;DHT22;7263;49.418;11.064;2022-08-19T13:51:47;19.70;99.90
14359;DHT22;7263;49.418;11.064;2022-08-19T13:54:14;19.70;99.90
14359;DHT22;7263;49.418;11.064;2022-08-19T13:56:42;19.60;99.90
14359;DHT22;7263;49.418;11.064;2022-08-19T13:59:10;19.60;99.90
14359;DHT22;7263;49.418;11.064;2022-08-19T14:01:37;19.60;99.90
14359;DHT22;7263;49.418;11.064;2022-08-19T14:04:04;19.60;99.90
14359;DHT22;7263;49.418;11.064;2022-08-19T14:06:32;19.60;99.90
14359;DHT22;7263;49.418;11.064;2022-08-19T14:09:00;19.60;99.90
14359;DHT22;7263;49.418;11.064;2022-08-19T14:11:28;19.60;99.90
14359;DHT22;7263;49.418;11.064;2022-08-19T14:13:55;19.60;99.90
14359;DHT22;7263;49.418;11.064;2022-08-19T14:16:22;19.50;99.90
14359;DHT22;7263;49.418;11.064;2022-08-19T14:18:49;19.50;99.90
14359;DHT22;7263;49.418;11.064;2022-08-19T14:21:19;19.50;99.90
14359;DHT22;7263;49.418;11.064;2022-08-19T14:23:49;19.40;99.90
14359;DHT22;7263;49.418;11.064;2022-08-19T14:26:19;19.40;99.90
14359;DHT22;7263;49.418;11.064;2022-08-19T14:31:15;19.30;99.90
14359;DHT22;7263;49.418;11.064;2022-08-19T14:33:44;19.30;99.90
14359;DHT22;7263;49.418;11.064;2022-08-19T14:41:12;19.00;99.90
14359;DHT22;7263;49.418;11.064;2022-08-19T14:43:42;18.90;99.90
14359;DHT22;7263;49.418;11.064;2022-08-19T14:46:12;18.80;99.90
14359;DHT22;7263;49.418;11.064;2022-08-19T14:48:40;18.70;99.90
14359;DHT22;7263;49.418;11.064;2022-08-19T14:56:06;18.50;99.90
14359;DHT22;7263;49.418;11.064;2022-08-19T15:01:02;18.40;99.90
14359;DHT22;7263;49.418;11.064;2022-08-19T15:03:31;18.40;99.90
14359;DHT22;7263;49.418;11.064;2022-08-19T15:05:59;18.40;99.90
14359;DHT22;7263;49.418;11.064;2022-08-19T15:08:28;18.40;99.90
14359;DHT22;7263;49.418;11.064;2022-08-19T15:10:55;18.40;99.90
14359;DHT22;7263;49.418;11.064;2022-08-19T15:13:23;18.40;99.90
14359;DHT22;7263;49.418;11.064;2022-08-19T15:15:51;18.50;99.90
14359;DHT22;7263;49.418;11.064;2022-08-19T15:18:20;18.50;99.90
14359;DHT22;7263;49.418;11.064;2022-08-19T15:20:47;18.50;99.90
14359;DHT22;7263;49.418;11.064;2022-08-19T15:23:14;18.60;99.90
14359;DHT22;7263;49.418;11.064;2022-08-19T15:25:41;18.60;99.90
14359;DHT22;7263;49.418;11.064;2022-08-19T15:30:37;18.70;99.90
14359;DHT22;7263;49.418;11.064;2022-08-19T15:33:04;18.70;99.90
14359;DHT22;7263;49.418;11.064;2022-08-19T15:35:32;18.60;99.90
14359;DHT22;7263;49.418;11.064;2022-08-19T15:40:27;18.60;99.90
14359;DHT22;7263;49.418;11.064;2022-08-19T15:45:21;18.50;99.90
14359;DHT22;7263;49.418;11.064;2022-08-19T15:47:49;18.50;99.90
14359;DHT22;7263;49.418;11.064;2022-08-19T15:50:18;18.40;99.90
14359;DHT22;7263;49.418;11.064;2022-08-19T15:52:48;18.40;99.90
14359;DHT22;7263;49.418;11.064;2022-08-19T15:55:16;18.30;99.90
14359;DHT22;7263;49.418;11.064;2022-08-19T15:57:43;18.20;99.90
14359;DHT22;7263;49.418;11.064;2022-08-19T16:00:27;18.20;99.90
14359;DHT22;7263;49.418;11.064;2022-08-19T16:03:13;18.10;99.90
14359;DHT22;7263;49.418;11.064;2022-08-19T16:05:58;18.10;99.90
14359;DHT22;7263;49.418;11.064;2022-08-19T16:08:44;18.10;99.90
14359;DHT22;7263;49.418;11.064;2022-08-19T16:11:17;18.00;99.90